Time;durP1;ratioP1;P1;durP2;ratioP2;P2;SDS_P1;SDS_P2;PMS_P1;PMS_P2;Temp;Humidity;BMP_temperature;BMP_pressure;BME280_temperature;BME280_humidity;BME280_pressure;Samples;Min_cycle;Max_cycle;Signal;HPM_P1;HPM_P2
2023/05/04 00:01:51;;;;;;;;;;;;;;;13.44;100.00;99577.97;5015116;28;20389;-43
2023/05/04 00:04:16;;;;;;;;;;;;;;;13.94;100.00;99552.88;5016561;28;20570;-43
2023/05/04 00:06:41;;;;;;;;;;;;;;;13.07;100.00;99558.47;5010732;28;20454;-43
2023/05/04 00:09:07;;;;;;;;;;;;;;;13.36;100.00;99554.94;5008165;28;20492;-43
2023/05/04 00:11:32;;;;;;;;;;;;;;;14.55;100.00;99538.47;4988568;28;19921;-43
2023/05/04 00:13:57;;;;;;;;;;;;;;;14.30;100.00;99508.34;5005997;28;20007;-45
2023/05/04 00:16:23;;;;;;;;;;;;;;;14.86;100.00;99496.59;5007037;28;19921;-43
2023/05/04 00:18:48;;;;;;;;;;;;;;;15.89;100.00;99463.56;5014391;28;19940;-43
2023/05/04 00:21:13;;;;;;;;;;;;;;;15.42;100.00;99453.59;5008073;28;19921;-43
2023/05/04 00:23:38;;;;;;;;;;;;;;;15.45;100.00;99469.84;5004175;28;19949;-44
2023/05/04 00:26:04;;;;;;;;;;;;;;;14.99;100.00;99473.59;5009111;28;20012;-42
2023/05/04 00:28:29;;;;;;;;;;;;;;;15.58;100.00;99469.31;5006652;28;19920;-42
2023/05/04 00:30:54;;;;;;;;;;;;;;;15.04;100.00;99459.53;5007069;28;19948;-43
2023/05/04 00:33:20;;;;;;;;;;;;;;;14.91;100.00;99478.25;5006259;28;20002;-42
2023/05/04 00:35:45;;;;;;;;;;;;;;;15.33;100.00;99454.00;4988773;28;19974;-43
2023/05/04 00:38:11;;;;;;;;;;;;;;;15.67;98.18;99425.59;5008957;28;20011;-42
2023/05/04 00:40:36;;;;;;;;;;;;;;;15.29;98.73;99436.88;5009560;28;21804;-43
2023/05/04 00:43:01;;;;;;;;;;;;;;;15.39;97.48;99423.38;5010300;28;19926;-43
2023/05/04 00:45:26;;;;;;;;;;;;;;;15.63;97.79;99423.22;5011358;28;19925;-43
2023/05/04 00:47:52;;;;;;;;;;;;;;;14.98;100.00;99457.19;4992149;28;19970;-43
2023/05/04 00:50:17;;;;;;;;;;;;;;;15.56;99.02;99429.59;5011505;28;19978;-42
2023/05/04 00:52:42;;;;;;;;;;;;;;;14.11;100.00;99468.50;5010446;28;19928;-42
2023/05/04 00:55:08;;;;;;;;;;;;;;;14.62;100.00;99447.47;5010102;28;19917;-43
2023/05/04 00:57:33;;;;;;;;;;;;;;;13.86;100.00;99466.00;5008572;28;19948;-44
2023/05/04 00:59:59;;;;;;;;;;;;;;;13.34;100.00;99508.44;4991024;28;19917;-43
2023/05/04 01:02:24;;;;;;;;;;;;;;;12.96;100.00;99494.22;5006927;28;19925;-43
2023/05/04 01:04:49;;;;;;;;;;;;;;;12.79;100.00;99506.84;5010972;28;20938;-43
2023/05/04 01:07:19;;;;;;;;;;;;;;;13.32;100.00;99518.00;4992309;28;20106;-43
2023/05/04 01:10:07;;;;;;;;;;;;;;;13.50;100.00;99505.28;4992214;28;19917;-43
2023/05/04 01:12:33;;;;;;;;;;;;;;;13.85;100.00;99477.28;4990841;28;19939;-43
2023/05/04 01:14:58;;;;;;;;;;;;;;;14.04;100.00;99495.53;5009562;28;19925;-42
2023/05/04 01:17:24;;;;;;;;;;;;;;;12.95;100.00;99495.09;4991083;28;19927;-42
2023/05/04 01:19:52;;;;;;;;;;;;;;;13.19;100.00;99511.53;5010407;28;19913;-42
2023/05/04 01:22:17;;;;;;;;;;;;;;;13.46;100.00;99508.91;5009561;28;19924;-43
2023/05/04 01:24:43;;;;;;;;;;;;;;;14.08;100.00;99476.41;5009224;28;19929;-43
2023/05/04 01:27:08;;;;;;;;;;;;;;;14.24;100.00;99469.72;5009031;28;19921;-43
2023/05/04 01:29:38;;;;;;;;;;;;;;;14.01;100.00;99460.25;4991855;28;19956;-43
2023/05/04 01:32:03;;;;;;;;;;;;;;;13.99;100.00;99456.88;4990391;28;19921;-43
2023/05/04 01:34:28;;;;;;;;;;;;;;;13.93;100.00;99457.09;5005120;28;20400;-42
2023/05/04 01:36:53;;;;;;;;;;;;;;;14.97;100.00;99431.34;5008047;28;19927;-43
2023/05/04 01:39:19;;;;;;;;;;;;;;;14.50;100.00;99437.56;5007139;28;20008;-43
2023/05/04 01:41:44;;;;;;;;;;;;;;;14.37;100.00;99431.22;5006487;28;20018;-44
2023/05/04 01:44:09;;;;;;;;;;;;;;;15.12;99.41;99388.28;5007994;28;19925;-43
2023/05/04 01:46:35;;;;;;;;;;;;;;;14.61;100.00;99414.66;5008062;28;19924;-43
2023/05/04 01:49:00;;;;;;;;;;;;;;;14.79;99.41;99412.22;5010807;28;19916;-43
2023/05/04 01:51:25;;;;;;;;;;;;;;;14.56;98.59;99406.25;5008578;28;20188;-43
2023/05/04 01:53:50;;;;;;;;;;;;;;;13.44;100.00;99453.78;5007688;28;19928;-43
2023/05/04 01:56:16;;;;;;;;;;;;;;;13.62;100.00;99467.78;5007276;28;19979;-43
2023/05/04 01:58:41;;;;;;;;;;;;;;;14.60;100.00;99440.66;5007788;28;19921;-43
2023/05/04 02:01:07;;;;;;;;;;;;;;;14.54;100.00;99431.38;5005060;28;20037;-43
2023/05/04 02:03:32;;;;;;;;;;;;;;;14.77;100.00;99439.94;5005870;28;20010;-43
2023/05/04 02:05:57;;;;;;;;;;;;;;;15.04;100.00;99418.03;5008760;28;19921;-43
2023/05/04 02:08:22;;;;;;;;;;;;;;;15.29;99.33;99401.38;5007984;28;19921;-43
2023/05/04 02:10:47;;;;;;;;;;;;;;;14.05;100.00;99435.06;5008919;28;20399;-43
2023/05/04 02:13:13;;;;;;;;;;;;;;;14.65;100.00;99425.75;5005634;28;20448;-43
2023/05/04 02:15:38;;;;;;;;;;;;;;;14.94;99.74;99406.38;5006394;28;21794;-43
2023/05/04 02:18:03;;;;;;;;;;;;;;;14.63;100.00;99418.03;5006877;28;20533;-43
2023/05/04 02:20:28;;;;;;;;;;;;;;;14.78;100.00;99415.69;5005624;28;19917;-43
2023/05/04 02:22:54;;;;;;;;;;;;;;;14.97;99.54;99392.44;5006455;28;20156;-43
2023/05/04 02:25:19;;;;;;;;;;;;;;;15.05;99.28;99395.50;5006223;28;20292;-43
2023/05/04 02:27:44;;;;;;;;;;;;;;;14.64;99.67;99411.09;5006285;28;20380;-43
2023/05/04 02:30:10;;;;;;;;;;;;;;;14.32;100.00;99417.59;5007679;28;19917;-43
2023/05/04 02:32:35;;;;;;;;;;;;;;;14.91;99.63;99403.91;5003408;28;20771;-43
2023/05/04 02:35:01;;;;;;;;;;;;;;;14.18;100.00;99437.09;5006763;28;20470;-43
2023/05/04 02:37:26;;;;;;;;;;;;;;;14.10;100.00;99428.81;5006762;28;20341;-43
2023/05/04 02:39:51;;;;;;;;;;;;;;;13.99;100.00;99425.81;5006382;28;19956;-43
2023/05/04 02:42:17;;;;;;;;;;;;;;;14.16;100.00;99427.72;5005791;28;20566;-43
2023/05/04 02:44:42;;;;;;;;;;;;;;;14.37;100.00;99426.88;4985549;28;19925;-43
2023/05/04 02:47:08;;;;;;;;;;;;;;;13.21;100.00;99431.31;5008174;28;19948;-43
2023/05/04 02:49:33;;;;;;;;;;;;;;;13.38;100.00;99463.44;5005170;28;19967;-43
2023/05/04 02:51:59;;;;;;;;;;;;;;;14.13;100.00;99431.28;5006758;28;20234;-43
2023/05/04 02:54:24;;;;;;;;;;;;;;;14.22;100.00;99417.97;5005591;28;20165;-43
2023/05/04 02:56:49;;;;;;;;;;;;;;;14.13;100.00;99417.50;5005518;28;19921;-44
2023/05/04 02:59:14;;;;;;;;;;;;;;;14.31;100.00;99411.56;5007483;28;19925;-43
2023/05/04 03:01:39;;;;;;;;;;;;;;;14.36;100.00;99411.38;5004101;28;19924;-43
2023/05/04 03:04:05;;;;;;;;;;;;;;;14.41;100.00;99407.72;5004200;28;19925;-43
2023/05/04 03:06:30;;;;;;;;;;;;;;;14.01;100.00;99430.00;5005601;28;19947;-43
2023/05/04 03:08:56;;;;;;;;;;;;;;;13.26;100.00;99448.34;5006179;28;20626;-43
2023/05/04 03:11:21;;;;;;;;;;;;;;;13.99;100.00;99436.16;5007967;28;20375;-43
2023/05/04 03:13:47;;;;;;;;;;;;;;;13.15;100.00;99429.75;5006474;28;20047;-43
2023/05/04 03:16:12;;;;;;;;;;;;;;;13.75;100.00;99438.81;5004970;28;20145;-43
2023/05/04 03:18:37;;;;;;;;;;;;;;;13.36;100.00;99435.94;5004459;28;20370;-43
2023/05/04 03:21:03;;;;;;;;;;;;;;;13.79;100.00;99434.34;5006409;28;19925;-43
2023/05/04 03:23:28;;;;;;;;;;;;;;;13.40;100.00;99422.00;5004531;28;20646;-43
2023/05/04 03:25:53;;;;;;;;;;;;;;;14.10;100.00;99426.22;4986585;28;19928;-43
2023/05/04 03:28:19;;;;;;;;;;;;;;;13.72;100.00;99415.59;5006852;28;19925;-42
2023/05/04 03:30:44;;;;;;;;;;;;;;;12.32;100.00;99466.16;5006460;28;19921;-42
2023/05/04 03:33:09;;;;;;;;;;;;;;;12.85;100.00;99450.63;5005493;28;20034;-42
2023/05/04 03:35:34;;;;;;;;;;;;;;;12.93;100.00;99440.88;5006233;28;19917;-43
2023/05/04 03:37:59;;;;;;;;;;;;;;;11.60;100.00;99484.59;5005713;28;20433;-45
2023/05/04 03:40:25;;;;;;;;;;;;;;;11.49;100.00;99492.66;5006281;28;20528;-44
2023/05/04 03:42:53;;;;;;;;;;;;;;;12.17;100.00;99487.28;5004201;28;19921;-44
2023/05/04 03:45:18;;;;;;;;;;;;;;;11.73;100.00;99495.44;5005402;28;19924;-44
2023/05/04 03:47:44;;;;;;;;;;;;;;;11.82;100.00;99496.91;5006005;28;19972;-44
2023/05/04 03:50:10;;;;;;;;;;;;;;;12.01;100.00;99500.66;5006770;28;20002;-44
2023/05/04 03:52:35;;;;;;;;;;;;;;;11.50;100.00;99502.09;4969631;28;19976;-44
2023/05/04 03:55:00;;;;;;;;;;;;;;;10.94;100.00;99506.16;5006976;28;19999;-42
2023/05/04 03:57:25;;;;;;;;;;;;;;;11.28;100.00;99498.41;5006536;28;19925;-44
2023/05/04 03:59:50;;;;;;;;;;;;;;;11.27;100.00;99500.13;5007465;28;19936;-44
2023/05/04 04:02:16;;;;;;;;;;;;;;;11.76;100.00;99482.44;5006267;28;19925;-44
2023/05/04 04:04:41;;;;;;;;;;;;;;;12.07;100.00;99466.91;5005487;28;19925;-44
2023/05/04 04:07:06;;;;;;;;;;;;;;;12.33;100.00;99473.00;5006692;28;19925;-44
2023/05/04 04:09:32;;;;;;;;;;;;;;;11.93;100.00;99474.25;5006776;28;19945;-44
2023/05/04 04:11:57;;;;;;;;;;;;;;;11.48;100.00;99477.22;5005918;28;19956;-44
2023/05/04 04:14:22;;;;;;;;;;;;;;;11.95;100.00;99477.63;5007157;28;19921;-44
2023/05/04 04:16:47;;;;;;;;;;;;;;;12.38;100.00;99465.94;5006138;28;19920;-44
2023/05/04 04:19:12;;;;;;;;;;;;;;;12.23;100.00;99456.13;5007300;28;19932;-44
2023/05/04 04:21:38;;;;;;;;;;;;;;;12.46;100.00;99448.47;5006446;28;19967;-44
2023/05/04 04:24:03;;;;;;;;;;;;;;;13.21;100.00;99434.72;5007002;28;19929;-44
2023/05/04 04:26:29;;;;;;;;;;;;;;;13.57;100.00;99426.53;5005800;28;19924;-44
2023/05/04 04:28:54;;;;;;;;;;;;;;;13.44;100.00;99418.41;5006878;28;19925;-44
2023/05/04 04:31:19;;;;;;;;;;;;;;;13.78;100.00;99407.63;5009512;28;20326;-44
2023/05/04 04:33:46;;;;;;;;;;;;;;;13.29;100.00;99414.63;5006238;28;20620;-43
2023/05/04 04:36:11;;;;;;;;;;;;;;;13.58;100.00;99417.88;5002740;28;19928;-43
2023/05/04 04:38:38;;;;;;;;;;;;;;;13.20;100.00;99412.34;5007550;28;19934;-44
2023/05/04 04:41:03;;;;;;;;;;;;;;;12.82;100.00;99430.06;5008630;28;20650;-44
2023/05/04 04:43:29;;;;;;;;;;;;;;;13.69;100.00;99418.31;5005023;28;19921;-43
2023/05/04 04:45:54;;;;;;;;;;;;;;;13.05;100.00;99420.66;5007696;28;19963;-44
2023/05/04 04:48:21;;;;;;;;;;;;;;;12.79;100.00;99437.91;5006675;28;19928;-44
2023/05/04 04:50:47;;;;;;;;;;;;;;;13.17;100.00;99440.91;5006286;28;19921;-43
2023/05/04 04:53:12;;;;;;;;;;;;;;;13.84;100.00;99400.50;5007179;28;20022;-44
2023/05/04 04:55:38;;;;;;;;;;;;;;;13.50;100.00;99407.84;4984211;28;20024;-45
2023/05/04 04:58:03;;;;;;;;;;;;;;;13.18;100.00;99424.47;4988193;28;20666;-44
2023/05/04 05:00:28;;;;;;;;;;;;;;;13.90;100.00;99421.00;5007244;28;20366;-44
2023/05/04 05:02:54;;;;;;;;;;;;;;;13.75;100.00;99418.09;5004672;28;19972;-44
2023/05/04 05:05:19;;;;;;;;;;;;;;;14.34;100.00;99395.03;5007833;28;20003;-43
2023/05/04 05:07:44;;;;;;;;;;;;;;;14.36;100.00;99388.06;5005266;28;20043;-44
2023/05/04 05:10:09;;;;;;;;;;;;;;;13.99;100.00;99399.91;5008005;28;19928;-44
2023/05/04 05:12:35;;;;;;;;;;;;;;;13.91;100.00;99391.59;5005510;28;20294;-44
2023/05/04 05:15:02;;;;;;;;;;;;;;;13.75;100.00;99391.34;5005213;28;19949;-44
2023/05/04 05:17:27;;;;;;;;;;;;;;;14.17;100.00;99391.41;5007502;28;19921;-44
2023/05/04 05:19:52;;;;;;;;;;;;;;;14.22;100.00;99381.69;4983471;28;19928;-44
2023/05/04 05:22:17;;;;;;;;;;;;;;;14.59;100.00;99377.59;5006042;28;19917;-43
2023/05/04 05:24:43;;;;;;;;;;;;;;;14.80;100.00;99372.41;5010005;28;19921;-44
2023/05/04 05:27:08;;;;;;;;;;;;;;;15.10;100.00;99348.63;5009055;28;19940;-43
2023/05/04 05:29:34;;;;;;;;;;;;;;;14.97;100.00;99346.56;5008930;28;20980;-44
2023/05/04 05:31:59;;;;;;;;;;;;;;;13.68;100.00;99432.16;5008587;28;19921;-44
2023/05/04 05:34:25;;;;;;;;;;;;;;;14.68;100.00;99414.41;5010149;28;20628;-44
2023/05/04 05:36:50;;;;;;;;;;;;;;;13.56;100.00;99453.31;5010382;28;20472;-44
2023/05/04 05:39:15;;;;;;;;;;;;;;;12.71;100.00;99489.00;5010174;28;21052;-44
2023/05/04 05:41:40;;;;;;;;;;;;;;;13.68;100.00;99489.09;5009788;28;20427;-45
2023/05/04 05:44:06;;;;;;;;;;;;;;;13.06;100.00;99479.22;5007765;28;20812;-45
2023/05/04 05:46:31;;;;;;;;;;;;;;;13.65;100.00;99490.97;5009422;28;19921;-44
2023/05/04 05:48:56;;;;;;;;;;;;;;;14.64;100.00;99448.25;4992021;28;19928;-44
2023/05/04 05:51:22;;;;;;;;;;;;;;;13.75;100.00;99485.41;5009856;28;19983;-44
2023/05/04 05:53:47;;;;;;;;;;;;;;;14.20;100.00;99474.16;5008266;28;19917;-44
2023/05/04 05:56:13;;;;;;;;;;;;;;;15.02;100.00;99456.16;5008405;28;19980;-44
2023/05/04 05:58:38;;;;;;;;;;;;;;;15.09;100.00;99423.00;5007662;28;19917;-44
2023/05/04 06:01:04;;;;;;;;;;;;;;;15.80;100.00;99394.72;5006919;28;19964;-44
2023/05/04 06:03:29;;;;;;;;;;;;;;;16.39;100.00;99386.72;5008386;28;20015;-44
2023/05/04 06:05:54;;;;;;;;;;;;;;;16.75;100.00;99372.78;5008549;28;19921;-44
2023/05/04 06:08:19;;;;;;;;;;;;;;;17.02;100.00;99358.34;5008577;28;19921;-43
2023/05/04 06:10:44;;;;;;;;;;;;;;;17.70;100.00;99341.69;5009715;28;19921;-44
2023/05/04 06:13:10;;;;;;;;;;;;;;;17.31;100.00;99348.13;5009632;28;19971;-44
2023/05/04 06:15:35;;;;;;;;;;;;;;;16.14;100.00;99351.53;5008921;28;19921;-44
2023/05/04 06:18:00;;;;;;;;;;;;;;;16.67;100.00;99345.41;5007800;28;20008;-44
2023/05/04 06:20:26;;;;;;;;;;;;;;;17.64;98.22;99305.56;5002765;28;19921;-44
2023/05/04 06:22:51;;;;;;;;;;;;;;;16.31;94.87;99293.53;5007250;28;20364;-44
2023/05/04 06:25:16;;;;;;;;;;;;;;;16.80;95.58;99295.38;5009940;28;19921;-44
2023/05/04 06:27:41;;;;;;;;;;;;;;;16.59;96.76;99313.75;5009427;28;19923;-44
2023/05/04 06:30:07;;;;;;;;;;;;;;;16.89;96.33;99305.28;5007788;28;19921;-44
2023/05/04 06:32:32;;;;;;;;;;;;;;;17.26;94.37;99279.88;5005299;28;20001;-44
2023/05/04 06:34:58;;;;;;;;;;;;;;;18.10;92.92;99263.84;5007276;28;19954;-44
2023/05/04 06:37:23;;;;;;;;;;;;;;;17.55;90.36;99257.44;5009678;28;19924;-44
2023/05/04 06:39:48;;;;;;;;;;;;;;;17.35;90.31;99267.19;5009086;28;20302;-44
2023/05/04 06:42:14;;;;;;;;;;;;;;;16.64;93.41;99296.13;5009122;28;19992;-44
2023/05/04 06:44:39;;;;;;;;;;;;;;;17.56;92.21;99272.97;5008920;28;20580;-44
2023/05/04 06:47:06;;;;;;;;;;;;;;;17.06;94.06;99292.22;5008476;28;19967;-44
2023/05/04 06:49:31;;;;;;;;;;;;;;;18.11;90.60;99261.16;5008890;28;21917;-44
2023/05/04 06:51:56;;;;;;;;;;;;;;;18.66;90.90;99267.44;4989989;28;19928;-45
2023/05/04 06:54:21;;;;;;;;;;;;;;;19.01;88.97;99256.63;5007777;28;19924;-44
2023/05/04 06:56:47;;;;;;;;;;;;;;;18.67;89.95;99258.69;5008749;28;19921;-45
2023/05/04 06:59:12;;;;;;;;;;;;;;;18.18;91.21;99278.13;4986866;28;19927;-44
2023/05/04 07:01:38;;;;;;;;;;;;;;;18.06;90.14;99262.34;5005918;28;19921;-44
2023/05/04 07:04:03;;;;;;;;;;;;;;;19.05;91.01;99268.56;5006555;28;19968;-44
2023/05/04 07:06:29;;;;;;;;;;;;;;;18.26;91.62;99277.66;5009406;28;19921;-45
2023/05/04 07:08:54;;;;;;;;;;;;;;;18.98;91.41;99272.50;5009969;28;19939;-45
2023/05/04 07:11:20;;;;;;;;;;;;;;;18.92;90.13;99265.03;5008741;28;20383;-44
2023/05/04 07:13:45;;;;;;;;;;;;;;;18.27;89.31;99276.75;5007454;28;20652;-45
2023/05/04 07:16:11;;;;;;;;;;;;;;;19.24;92.80;99283.91;5009853;28;19959;-44
2023/05/04 07:18:37;;;;;;;;;;;;;;;19.42;92.42;99266.22;5007027;28;19921;-44
2023/05/04 07:21:02;;;;;;;;;;;;;;;19.02;91.43;99268.72;5008357;28;19921;-44
2023/05/04 07:23:28;;;;;;;;;;;;;;;20.12;88.24;99245.09;5007987;28;19932;-44
2023/05/04 07:25:53;;;;;;;;;;;;;;;19.76;88.79;99259.66;5007252;28;19928;-44
2023/05/04 07:28:18;;;;;;;;;;;;;;;19.25;92.54;99285.59;5005300;28;19921;-44
2023/05/04 07:30:43;;;;;;;;;;;;;;;20.63;91.55;99265.19;5007477;28;19940;-45
2023/05/04 07:33:09;;;;;;;;;;;;;;;20.84;87.30;99236.69;5006206;28;19921;-44
2023/05/04 07:35:35;;;;;;;;;;;;;;;21.70;82.99;99204.28;5006502;28;19960;-45
2023/05/04 07:38:00;;;;;;;;;;;;;;;21.57;83.42;99214.81;5007243;28;20012;-44
2023/05/04 07:40:25;;;;;;;;;;;;;;;21.35;82.11;99206.84;5005205;28;19921;-44
2023/05/04 07:42:50;;;;;;;;;;;;;;;20.53;83.44;99230.97;5006462;28;19987;-45
2023/05/04 07:45:16;;;;;;;;;;;;;;;20.51;84.49;99234.63;5007437;28;20105;-45
2023/05/04 07:47:41;;;;;;;;;;;;;;;20.37;82.23;99218.09;5006199;28;19925;-44
2023/05/04 07:50:07;;;;;;;;;;;;;;;21.42;83.89;99231.69;5007800;28;19920;-45
2023/05/04 07:52:32;;;;;;;;;;;;;;;20.59;94.29;99295.13;5007518;28;19921;-44
2023/05/04 07:54:57;;;;;;;;;;;;;;;20.94;96.96;99297.06;4989158;28;19921;-46
2023/05/04 07:57:22;;;;;;;;;;;;;;;22.20;88.17;99206.66;5007436;28;19948;-46
2023/05/04 07:59:48;;;;;;;;;;;;;;;22.21;93.63;99263.38;5007851;28;19948;-45
2023/05/04 08:02:13;;;;;;;;;;;;;;;22.79;92.14;99245.81;5004745;28;20035;-45
2023/05/04 08:04:38;;;;;;;;;;;;;;;22.48;90.14;99232.44;5006551;28;19921;-45
2023/05/04 08:07:03;;;;;;;;;;;;;;;22.52;81.74;99186.63;5008271;28;19921;-45
2023/05/04 08:09:28;;;;;;;;;;;;;;;22.95;82.60;99200.78;5008272;28;19927;-45
2023/05/04 08:11:54;;;;;;;;;;;;;;;23.46;75.31;99149.38;5007673;28;19925;-45
2023/05/04 08:14:19;;;;;;;;;;;;;;;23.55;74.00;99152.06;5006238;28;21258;-46
2023/05/04 08:16:44;;;;;;;;;;;;;;;21.48;70.56;99150.00;5007423;28;20293;-45
2023/05/04 08:19:11;;;;;;;;;;;;;;;20.95;77.03;99191.41;5007858;28;19917;-45
2023/05/04 08:21:36;;;;;;;;;;;;;;;21.47;74.37;99166.69;5006442;28;19920;-45
2023/05/04 08:24:01;;;;;;;;;;;;;;;23.55;74.05;99153.88;5005735;28;19928;-45
2023/05/04 08:26:26;;;;;;;;;;;;;;;22.48;69.89;99148.44;5008692;28;19928;-46
2023/05/04 08:28:52;;;;;;;;;;;;;;;24.55;71.56;99150.66;5006126;28;19917;-46
2023/05/04 08:31:17;;;;;;;;;;;;;;;23.57;66.56;99130.91;5007959;28;19944;-45
2023/05/04 08:33:43;;;;;;;;;;;;;;;22.36;74.69;99191.41;5004650;28;19921;-45
2023/05/04 08:36:08;;;;;;;;;;;;;;;23.22;71.86;99160.09;5007124;28;21740;-45
2023/05/04 08:38:33;;;;;;;;;;;;;;;24.11;72.10;99156.16;5005118;28;20105;-45
2023/05/04 08:41:05;;;;;;;;;;;;;;;23.62;67.35;99139.25;5005986;28;20840;-44
2023/05/04 08:43:32;;;;;;;;;;;;;;;23.78;73.91;99170.38;5004326;28;20678;-47
2023/05/04 08:45:58;;;;;;;;;;;;;;;23.66;70.92;99139.84;5004623;28;19921;-45
2023/05/04 08:48:23;;;;;;;;;;;;;;;23.78;73.63;99171.19;5005318;28;19917;-45
2023/05/04 08:50:48;;;;;;;;;;;;;;;24.43;69.66;99140.22;5006363;28;19921;-44
2023/05/04 08:53:13;;;;;;;;;;;;;;;22.40;66.44;99127.25;5005715;28;19930;-45
2023/05/04 08:55:40;;;;;;;;;;;;;;;24.53;70.00;99145.53;5005889;28;19917;-45
2023/05/04 08:58:11;;;;;;;;;;;;;;;23.82;71.82;99161.28;5008964;28;19921;-45
2023/05/04 09:00:40;;;;;;;;;;;;;;;22.85;63.97;99107.91;5005233;28;20441;-45
2023/05/04 09:03:06;;;;;;;;;;;;;;;24.66;69.21;99136.56;5009678;28;19960;-45
2023/05/04 09:05:31;;;;;;;;;;;;;;;24.34;65.68;99124.41;5010988;28;19967;-45
2023/05/04 09:07:57;;;;;;;;;;;;;;;24.61;65.75;99124.63;5010496;28;20761;-47
2023/05/04 09:10:22;;;;;;;;;;;;;;;24.40;63.10;99108.03;5010454;28;20332;-45
2023/05/04 09:12:52;;;;;;;;;;;;;;;25.03;65.02;99116.47;4988801;28;20230;-46
2023/05/04 09:15:17;;;;;;;;;;;;;;;26.15;58.16;99068.38;5011988;28;19921;-43
2023/05/04 09:17:53;;;;;;;;;;;;;;;24.00;54.44;99061.53;5013597;28;20543;-45
2023/05/04 09:20:18;;;;;;;;;;;;;;;23.18;58.03;99075.47;5011299;28;19921;-45
2023/05/04 09:22:43;;;;;;;;;;;;;;;24.19;57.32;99069.47;5006913;28;21081;-44
2023/05/04 09:25:09;;;;;;;;;;;;;;;23.98;57.71;99066.94;5008494;28;20039;-45
2023/05/04 09:27:35;;;;;;;;;;;;;;;24.54;55.62;99055.06;5008438;28;19925;-44
2023/05/04 09:30:00;;;;;;;;;;;;;;;24.49;65.91;99132.78;5009531;28;20541;-45
2023/05/04 09:32:25;;;;;;;;;;;;;;;25.64;73.02;99136.44;5009675;28;20710;-45
2023/05/04 09:34:51;;;;;;;;;;;;;;;24.83;75.93;99164.84;4987867;28;19920;-44
2023/05/04 09:37:17;;;;;;;;;;;;;;;24.71;79.91;99189.66;5009194;28;20074;-45
2023/05/04 09:39:56;;;;;;;;;;;;;;;23.63;77.41;99159.34;4989290;28;20615;-45
2023/05/04 09:42:22;;;;;;;;;;;;;;;23.26;73.96;99141.34;5010507;28;19916;-45
2023/05/04 09:45:03;;;;;;;;;;;;;;;24.11;77.16;99156.16;5008323;28;20720;-45
2023/05/04 09:47:33;;;;;;;;;;;;;;;22.99;81.85;99194.34;5009180;28;19932;-45
2023/05/04 09:49:58;;;;;;;;;;;;;;;23.69;78.66;99158.78;5009467;28;20791;-46
2023/05/04 09:52:23;;;;;;;;;;;;;;;23.33;86.69;99210.84;4989735;28;19925;-45
2023/05/04 09:54:48;;;;;;;;;;;;;;;25.23;82.42;99166.59;5008205;28;19917;-46
2023/05/04 09:57:14;;;;;;;;;;;;;;;24.46;79.90;99157.53;5007438;28;19921;-45
2023/05/04 09:59:39;;;;;;;;;;;;;;;23.34;80.72;99167.81;5010825;28;20880;-45
2023/05/04 10:02:05;;;;;;;;;;;;;;;24.98;77.81;99139.78;5006635;28;20597;-45
2023/05/04 10:04:33;;;;;;;;;;;;;;;24.38;82.11;99179.28;5007057;28;19929;-46
2023/05/04 10:06:59;;;;;;;;;;;;;;;24.23;84.20;99185.03;5009144;28;19921;-44
2023/05/04 10:09:25;;;;;;;;;;;;;;;22.91;76.20;99133.69;5007087;28;19932;-44
2023/05/04 10:11:50;;;;;;;;;;;;;;;24.56;75.09;99120.72;5006319;28;19917;-46
2023/05/04 10:14:15;;;;;;;;;;;;;;;25.45;66.44;99063.50;5008092;28;20745;-44
2023/05/04 10:16:47;;;;;;;;;;;;;;;24.42;70.10;99103.47;5005904;28;19921;-45
2023/05/04 10:19:22;;;;;;;;;;;;;;;23.70;70.21;99104.44;5007676;28;19944;-46
2023/05/04 10:21:51;;;;;;;;;;;;;;;25.38;75.23;99109.81;5002614;28;19932;-45
2023/05/04 10:24:30;;;;;;;;;;;;;;;24.97;70.32;99084.59;5007625;28;20265;-44
2023/05/04 10:27:08;;;;;;;;;;;;;;;25.51;71.25;99079.72;4991680;28;19920;-45
2023/05/04 10:29:33;;;;;;;;;;;;;;;25.76;70.03;99080.88;5007153;28;19921;-43
2023/05/04 10:31:59;;;;;;;;;;;;;;;27.19;66.12;99032.75;5005192;28;19928;-44
2023/05/04 10:34:27;;;;;;;;;;;;;;;25.70;66.07;99050.63;5003395;28;19921;-44
2023/05/04 10:36:52;;;;;;;;;;;;;;;26.14;61.69;99024.50;5011198;28;20663;-44
2023/05/04 10:39:19;;;;;;;;;;;;;;;25.39;71.15;99074.59;5006878;28;19921;-44
2023/05/04 10:42:00;;;;;;;;;;;;;;;27.67;64.14;99020.81;5007153;28;22071;-45
2023/05/04 10:44:26;;;;;;;;;;;;;;;28.10;65.63;99038.38;5008234;28;20019;-44
2023/05/04 10:46:58;;;;;;;;;;;;;;;26.19;70.75;99074.22;5008850;28;19998;-45
2023/05/04 10:49:23;;;;;;;;;;;;;;;27.13;71.18;99060.59;5008752;28;19921;-44
2023/05/04 10:51:50;;;;;;;;;;;;;;;25.90;65.68;99026.84;5008837;28;19960;-45
2023/05/04 10:54:16;;;;;;;;;;;;;;;26.60;66.06;99016.56;5006970;28;19921;-45
2023/05/04 10:56:41;;;;;;;;;;;;;;;25.54;71.86;99056.50;5007529;28;19928;-44
2023/05/04 10:59:07;;;;;;;;;;;;;;;25.87;75.88;99078.91;5007917;28;19928;-44
2023/05/04 11:01:40;;;;;;;;;;;;;;;27.94;60.62;98969.50;5005317;28;19921;-44
2023/05/04 11:04:05;;;;;;;;;;;;;;;26.51;62.99;98997.13;5004050;28;19921;-44
2023/05/04 11:06:30;;;;;;;;;;;;;;;26.96;66.78;99011.22;4987799;28;19923;-45
2023/05/04 11:08:59;;;;;;;;;;;;;;;27.82;66.77;99000.69;5006168;28;19921;-46
2023/05/04 11:11:24;;;;;;;;;;;;;;;25.37;66.67;99025.63;5006746;28;20954;-45
2023/05/04 11:13:50;;;;;;;;;;;;;;;26.00;71.16;99028.47;5005686;28;19921;-45
2023/05/04 11:16:22;;;;;;;;;;;;;;;25.10;68.53;99021.06;5004925;28;19924;-45
2023/05/04 11:18:47;;;;;;;;;;;;;;;26.93;66.62;99001.81;5006858;28;20690;-44
2023/05/04 11:21:21;;;;;;;;;;;;;;;25.97;70.29;99031.38;4990234;28;19923;-44
2023/05/04 11:23:47;;;;;;;;;;;;;;;26.20;67.82;99008.03;5006727;28;19925;-45
2023/05/04 11:26:13;;;;;;;;;;;;;;;25.30;69.06;99014.81;4989158;28;19916;-44
2023/05/04 11:28:39;;;;;;;;;;;;;;;25.89;70.31;99012.81;5007488;28;19921;-44
2023/05/04 11:31:14;;;;;;;;;;;;;;;24.48;79.68;99076.66;5009211;28;19964;-44
2023/05/04 11:33:49;;;;;;;;;;;;;;;25.73;79.30;99047.72;5007128;28;19925;-44
2023/05/04 11:36:14;;;;;;;;;;;;;;;27.62;66.95;98970.16;5007408;28;20003;-44
2023/05/04 11:38:39;;;;;;;;;;;;;;;27.32;68.35;98988.22;5006162;28;20023;-44
2023/05/04 11:41:05;;;;;;;;;;;;;;;26.23;66.64;98978.72;5006140;28;20428;-45
2023/05/04 11:43:31;;;;;;;;;;;;;;;26.78;66.78;98966.38;5006833;28;20012;-44
2023/05/04 11:45:58;;;;;;;;;;;;;;;25.80;69.15;98988.13;4987060;28;19964;-45
2023/05/04 11:48:23;;;;;;;;;;;;;;;27.53;64.58;98950.81;5007298;28;19917;-45
2023/05/04 11:50:49;;;;;;;;;;;;;;;27.59;63.41;98949.34;4989571;28;19974;-44
2023/05/04 11:53:14;;;;;;;;;;;;;;;27.61;61.00;98939.41;5008811;28;19967;-44
2023/05/04 11:55:40;;;;;;;;;;;;;;;28.27;68.62;98973.03;5007261;28;20561;-45
2023/05/04 11:58:09;;;;;;;;;;;;;;;27.07;59.90;98924.59;4988257;28;20294;-47
2023/05/04 12:00:40;;;;;;;;;;;;;;;25.91;61.74;98949.34;5007425;28;21103;-45
2023/05/04 12:03:06;;;;;;;;;;;;;;;26.10;61.97;98951.84;5010250;28;20545;-45
2023/05/04 12:05:33;;;;;;;;;;;;;;;25.93;64.31;98957.94;5007322;28;20118;-45
2023/05/04 12:07:58;;;;;;;;;;;;;;;26.39;60.43;98922.59;5012202;28;19917;-45
2023/05/04 12:10:27;;;;;;;;;;;;;;;27.72;67.44;98962.94;4990348;28;19932;-44
2023/05/04 12:12:52;;;;;;;;;;;;;;;27.43;62.57;98928.94;5006088;28;20846;-45
2023/05/04 12:15:26;;;;;;;;;;;;;;;27.51;56.19;98889.31;5007410;28;19921;-45
2023/05/04 12:17:51;;;;;;;;;;;;;;;28.09;54.55;98887.63;5004554;28;20074;-45
2023/05/04 12:20:21;;;;;;;;;;;;;;;26.73;57.64;98900.78;5007563;28;21828;-44
2023/05/04 12:22:47;;;;;;;;;;;;;;;27.11;57.84;98901.31;5006451;28;19921;-45
2023/05/04 12:25:13;;;;;;;;;;;;;;;26.58;59.78;98902.31;5003618;28;19925;-44
2023/05/04 12:27:39;;;;;;;;;;;;;;;27.32;63.54;98927.38;5006428;28;19921;-46
2023/05/04 12:30:05;;;;;;;;;;;;;;;27.42;64.55;98928.09;5005464;28;19921;-45
2023/05/04 12:32:30;;;;;;;;;;;;;;;26.38;65.00;98928.03;5005825;28;19923;-45
2023/05/04 12:34:55;;;;;;;;;;;;;;;27.47;60.46;98888.78;5008079;28;19917;-46
2023/05/04 12:37:21;;;;;;;;;;;;;;;27.11;59.43;98877.53;5005515;28;19920;-44